sensor_id;sensor_type;location;lat;lon;timestamp;P1;durP1;ratioP1;P2;durP2;ratioP2
52838;SDS011;39219;53.678;9.856;2023-10-19T00:00:20;14.32;;;7.38;;
52838;SDS011;39219;53.678;9.856;2023-10-19T00:02:46;14.23;;;7.38;;
52838;SDS011;39219;53.678;9.856;2023-10-19T00:05:13;14.05;;;7.32;;
52838;SDS011;39219;53.678;9.856;2023-10-19T00:07:39;13.35;;;7.53;;
52838;SDS011;39219;53.678;9.856;2023-10-19T00:10:06;13.90;;;7.95;;
52838;SDS011;39219;53.678;9.856;2023-10-19T00:12:32;13.57;;;8.10;;
52838;SDS011;39219;53.678;9.856;2023-10-19T00:15:00;13.57;;;7.95;;
52838;SDS011;39219;53.678;9.856;2023-10-19T00:17:28;13.07;;;7.50;;
52838;SDS011;39219;53.678;9.856;2023-10-19T00:19:57;14.02;;;7.68;;
52838;SDS011;39219;53.678;9.856;2023-10-19T00:22:23;14.25;;;7.88;;
52838;SDS011;39219;53.678;9.856;2023-10-19T00:24:49;13.80;;;7.93;;
52838;SDS011;39219;53.678;9.856;2023-10-19T00:27:15;12.90;;;7.45;;
52838;SDS011;39219;53.678;9.856;2023-10-19T00:29:42;13.75;;;7.93;;
52838;SDS011;39219;53.678;9.856;2023-10-19T00:32:16;17.73;;;7.93;;
52838;SDS011;39219;53.678;9.856;2023-10-19T00:34:44;13.63;;;7.90;;
52838;SDS011;39219;53.678;9.856;2023-10-19T00:37:16;16.17;;;7.80;;
52838;SDS011;39219;53.678;9.856;2023-10-19T00:39:45;14.40;;;8.35;;
52838;SDS011;39219;53.678;9.856;2023-10-19T00:42:18;16.45;;;8.38;;
52838;SDS011;39219;53.678;9.856;2023-10-19T00:44:49;14.70;;;8.52;;
52838;SDS011;39219;53.678;9.856;2023-10-19T00:47:17;15.05;;;8.68;;
52838;SDS011;39219;53.678;9.856;2023-10-19T00:49:48;17.75;;;8.20;;
52838;SDS011;39219;53.678;9.856;2023-10-19T00:52:15;14.98;;;8.43;;
52838;SDS011;39219;53.678;9.856;2023-10-19T00:54:44;15.98;;;8.15;;
52838;SDS011;39219;53.678;9.856;2023-10-19T00:57:16;16.30;;;8.43;;
52838;SDS011;39219;53.678;9.856;2023-10-19T00:59:46;14.68;;;7.82;;
52838;SDS011;39219;53.678;9.856;2023-10-19T01:02:15;16.50;;;8.20;;
52838;SDS011;39219;53.678;9.856;2023-10-19T01:04:55;14.90;;;8.57;;
52838;SDS011;39219;53.678;9.856;2023-10-19T01:07:25;14.18;;;8.25;;
52838;SDS011;39219;53.678;9.856;2023-10-19T01:09:54;14.80;;;8.32;;
52838;SDS011;39219;53.678;9.856;2023-10-19T01:12:21;16.75;;;8.73;;
52838;SDS011;39219;53.678;9.856;2023-10-19T01:15:00;17.20;;;8.68;;
52838;SDS011;39219;53.678;9.856;2023-10-19T01:17:28;17.20;;;8.93;;
52838;SDS011;39219;53.678;9.856;2023-10-19T01:19:57;14.60;;;8.48;;
52838;SDS011;39219;53.678;9.856;2023-10-19T01:22:24;15.27;;;8.13;;
52838;SDS011;39219;53.678;9.856;2023-10-19T01:24:53;16.52;;;8.70;;
52838;SDS011;39219;53.678;9.856;2023-10-19T01:27:20;15.75;;;8.30;;
52838;SDS011;39219;53.678;9.856;2023-10-19T01:29:47;14.85;;;7.97;;
52838;SDS011;39219;53.678;9.856;2023-10-19T01:32:17;14.23;;;8.30;;
52838;SDS011;39219;53.678;9.856;2023-10-19T01:34:43;14.73;;;8.02;;
52838;SDS011;39219;53.678;9.856;2023-10-19T01:37:09;14.88;;;8.10;;
52838;SDS011;39219;53.678;9.856;2023-10-19T01:39:37;14.02;;;8.32;;
52838;SDS011;39219;53.678;9.856;2023-10-19T01:42:05;15.32;;;7.88;;
52838;SDS011;39219;53.678;9.856;2023-10-19T01:44:32;14.45;;;8.20;;
52838;SDS011;39219;53.678;9.856;2023-10-19T01:47:01;15.95;;;8.20;;
52838;SDS011;39219;53.678;9.856;2023-10-19T01:49:26;15.05;;;8.23;;
52838;SDS011;39219;53.678;9.856;2023-10-19T01:51:52;14.27;;;7.93;;
52838;SDS011;39219;53.678;9.856;2023-10-19T01:54:19;16.40;;;8.60;;
52838;SDS011;39219;53.678;9.856;2023-10-19T01:56:48;15.48;;;8.45;;
52838;SDS011;39219;53.678;9.856;2023-10-19T01:59:17;14.63;;;8.02;;
52838;SDS011;39219;53.678;9.856;2023-10-19T02:01:44;15.95;;;8.25;;
52838;SDS011;39219;53.678;9.856;2023-10-19T02:04:10;16.70;;;8.25;;
52838;SDS011;39219;53.678;9.856;2023-10-19T02:06:38;15.00;;;8.05;;
52838;SDS011;39219;53.678;9.856;2023-10-19T02:09:05;13.98;;;8.07;;
52838;SDS011;39219;53.678;9.856;2023-10-19T02:11:42;15.07;;;8.32;;
52838;SDS011;39219;53.678;9.856;2023-10-19T02:14:08;15.25;;;8.25;;
52838;SDS011;39219;53.678;9.856;2023-10-19T02:16:40;14.70;;;8.50;;
52838;SDS011;39219;53.678;9.856;2023-10-19T02:19:06;17.45;;;8.77;;
52838;SDS011;39219;53.678;9.856;2023-10-19T02:21:32;14.98;;;8.30;;
52838;SDS011;39219;53.678;9.856;2023-10-19T02:24:03;15.73;;;8.80;;
52838;SDS011;39219;53.678;9.856;2023-10-19T02:26:29;14.65;;;8.50;;
52838;SDS011;39219;53.678;9.856;2023-10-19T02:28:56;17.38;;;8.65;;
52838;SDS011;39219;53.678;9.856;2023-10-19T02:31:23;16.08;;;8.40;;
52838;SDS011;39219;53.678;9.856;2023-10-19T02:33:51;17.08;;;8.40;;
52838;SDS011;39219;53.678;9.856;2023-10-19T02:36:23;15.57;;;8.90;;
52838;SDS011;39219;53.678;9.856;2023-10-19T02:38:49;14.10;;;8.30;;
52838;SDS011;39219;53.678;9.856;2023-10-19T02:41:16;15.38;;;8.80;;
52838;SDS011;39219;53.678;9.856;2023-10-19T02:43:44;16.60;;;9.13;;
52838;SDS011;39219;53.678;9.856;2023-10-19T02:46:16;15.73;;;8.60;;
52838;SDS011;39219;53.678;9.856;2023-10-19T02:48:42;16.10;;;8.35;;
52838;SDS011;39219;53.678;9.856;2023-10-19T02:51:11;15.85;;;8.63;;
52838;SDS011;39219;53.678;9.856;2023-10-19T02:53:37;17.35;;;8.65;;
52838;SDS011;39219;53.678;9.856;2023-10-19T02:56:11;15.63;;;8.52;;
52838;SDS011;39219;53.678;9.856;2023-10-19T02:58:38;16.25;;;8.93;;
52838;SDS011;39219;53.678;9.856;2023-10-19T03:01:11;17.38;;;8.60;;
52838;SDS011;39219;53.678;9.856;2023-10-19T03:03:37;16.58;;;8.55;;
52838;SDS011;39219;53.678;9.856;2023-10-19T03:06:03;16.08;;;9.02;;
52838;SDS011;39219;53.678;9.856;2023-10-19T03:08:33;15.23;;;8.30;;
52838;SDS011;39219;53.678;9.856;2023-10-19T03:11:00;17.77;;;9.07;;
52838;SDS011;39219;53.678;9.856;2023-10-19T03:13:29;16.58;;;8.80;;
52838;SDS011;39219;53.678;9.856;2023-10-19T03:15:56;17.00;;;8.48;;
52838;SDS011;39219;53.678;9.856;2023-10-19T03:18:22;17.05;;;8.95;;
52838;SDS011;39219;53.678;9.856;2023-10-19T03:20:50;19.45;;;9.13;;
52838;SDS011;39219;53.678;9.856;2023-10-19T03:23:16;16.63;;;8.77;;
52838;SDS011;39219;53.678;9.856;2023-10-19T03:25:43;17.27;;;9.05;;
52838;SDS011;39219;53.678;9.856;2023-10-19T03:28:40;17.15;;;8.75;;
52838;SDS011;39219;53.678;9.856;2023-10-19T03:31:07;17.48;;;9.27;;
52838;SDS011;39219;53.678;9.856;2023-10-19T03:33:38;17.52;;;8.73;;
52838;SDS011;39219;53.678;9.856;2023-10-19T03:36:06;16.40;;;8.77;;
52838;SDS011;39219;53.678;9.856;2023-10-19T03:38:38;18.80;;;9.00;;
52838;SDS011;39219;53.678;9.856;2023-10-19T03:41:07;16.80;;;8.65;;
52838;SDS011;39219;53.678;9.856;2023-10-19T03:43:34;17.63;;;9.45;;
52838;SDS011;39219;53.678;9.856;2023-10-19T03:46:05;17.02;;;9.82;;
52838;SDS011;39219;53.678;9.856;2023-10-19T03:48:39;16.10;;;8.55;;
52838;SDS011;39219;53.678;9.856;2023-10-19T03:51:05;15.65;;;8.68;;
52838;SDS011;39219;53.678;9.856;2023-10-19T03:53:37;17.52;;;8.88;;
52838;SDS011;39219;53.678;9.856;2023-10-19T03:56:05;14.88;;;8.35;;
52838;SDS011;39219;53.678;9.856;2023-10-19T03:58:37;15.88;;;8.63;;
52838;SDS011;39219;53.678;9.856;2023-10-19T04:01:05;16.10;;;8.50;;
52838;SDS011;39219;53.678;9.856;2023-10-19T04:03:32;16.58;;;8.93;;
52838;SDS011;39219;53.678;9.856;2023-10-19T04:05:59;15.02;;;8.48;;
52838;SDS011;39219;53.678;9.856;2023-10-19T04:08:28;17.73;;;9.40;;
52838;SDS011;39219;53.678;9.856;2023-10-19T04:11:00;19.38;;;9.63;;
52838;SDS011;39219;53.678;9.856;2023-10-19T04:13:38;19.00;;;9.98;;
52838;SDS011;39219;53.678;9.856;2023-10-19T04:16:04;18.30;;;9.43;;
52838;SDS011;39219;53.678;9.856;2023-10-19T04:18:33;20.20;;;9.75;;
52838;SDS011;39219;53.678;9.856;2023-10-19T04:21:00;16.10;;;9.48;;
52838;SDS011;39219;53.678;9.856;2023-10-19T04:23:28;18.35;;;10.15;;
52838;SDS011;39219;53.678;9.856;2023-10-19T04:25:54;19.90;;;10.38;;
52838;SDS011;39219;53.678;9.856;2023-10-19T04:28:23;21.08;;;10.25;;
52838;SDS011;39219;53.678;9.856;2023-10-19T04:30:58;18.52;;;9.77;;
52838;SDS011;39219;53.678;9.856;2023-10-19T04:33:27;18.42;;;10.20;;
52838;SDS011;39219;53.678;9.856;2023-10-19T04:35:54;19.52;;;10.82;;
52838;SDS011;39219;53.678;9.856;2023-10-19T04:38:23;19.15;;;10.85;;
52838;SDS011;39219;53.678;9.856;2023-10-19T04:40:49;20.17;;;11.10;;
52838;SDS011;39219;53.678;9.856;2023-10-19T04:43:15;20.83;;;10.73;;
52838;SDS011;39219;53.678;9.856;2023-10-19T04:45:42;19.98;;;10.75;;
52838;SDS011;39219;53.678;9.856;2023-10-19T04:48:10;20.38;;;11.35;;
52838;SDS011;39219;53.678;9.856;2023-10-19T04:50:37;22.20;;;11.32;;
52838;SDS011;39219;53.678;9.856;2023-10-19T04:53:04;21.13;;;11.15;;
52838;SDS011;39219;53.678;9.856;2023-10-19T04:55:31;19.45;;;10.45;;
52838;SDS011;39219;53.678;9.856;2023-10-19T04:57:59;21.10;;;10.48;;
52838;SDS011;39219;53.678;9.856;2023-10-19T05:00:25;22.00;;;10.85;;
52838;SDS011;39219;53.678;9.856;2023-10-19T05:02:53;19.83;;;10.35;;
52838;SDS011;39219;53.678;9.856;2023-10-19T05:05:21;20.02;;;10.95;;
52838;SDS011;39219;53.678;9.856;2023-10-19T05:07:47;19.67;;;10.48;;
52838;SDS011;39219;53.678;9.856;2023-10-19T05:10:14;21.52;;;11.23;;
52838;SDS011;39219;53.678;9.856;2023-10-19T05:12:40;23.88;;;11.27;;
52838;SDS011;39219;53.678;9.856;2023-10-19T05:15:06;21.15;;;10.88;;
52838;SDS011;39219;53.678;9.856;2023-10-19T05:17:33;22.60;;;11.60;;
52838;SDS011;39219;53.678;9.856;2023-10-19T05:19:59;21.92;;;11.15;;
52838;SDS011;39219;53.678;9.856;2023-10-19T05:22:27;22.30;;;11.32;;
52838;SDS011;39219;53.678;9.856;2023-10-19T05:24:54;21.58;;;11.88;;
52838;SDS011;39219;53.678;9.856;2023-10-19T05:27:20;21.05;;;11.05;;
52838;SDS011;39219;53.678;9.856;2023-10-19T05:29:47;22.15;;;12.27;;
52838;SDS011;39219;53.678;9.856;2023-10-19T05:32:13;21.52;;;11.30;;
52838;SDS011;39219;53.678;9.856;2023-10-19T05:34:39;22.73;;;11.30;;
52838;SDS011;39219;53.678;9.856;2023-10-19T05:37:06;22.80;;;11.55;;
52838;SDS011;39219;53.678;9.856;2023-10-19T05:39:35;22.20;;;11.95;;
52838;SDS011;39219;53.678;9.856;2023-10-19T05:42:01;21.33;;;11.63;;
52838;SDS011;39219;53.678;9.856;2023-10-19T05:44:28;21.80;;;11.48;;
52838;SDS011;39219;53.678;9.856;2023-10-19T05:46:55;23.25;;;11.88;;
52838;SDS011;39219;53.678;9.856;2023-10-19T05:49:21;22.30;;;11.57;;
52838;SDS011;39219;53.678;9.856;2023-10-19T05:51:49;22.20;;;11.27;;
52838;SDS011;39219;53.678;9.856;2023-10-19T05:54:15;22.60;;;11.25;;
52838;SDS011;39219;53.678;9.856;2023-10-19T05:56:43;20.33;;;10.98;;
52838;SDS011;39219;53.678;9.856;2023-10-19T05:59:10;22.25;;;11.25;;
52838;SDS011;39219;53.678;9.856;2023-10-19T06:01:37;23.30;;;11.73;;
52838;SDS011;39219;53.678;9.856;2023-10-19T06:04:04;20.92;;;11.57;;
52838;SDS011;39219;53.678;9.856;2023-10-19T06:06:31;22.83;;;12.20;;
52838;SDS011;39219;53.678;9.856;2023-10-19T06:08:57;24.33;;;12.02;;
52838;SDS011;39219;53.678;9.856;2023-10-19T06:11:23;22.73;;;11.57;;
52838;SDS011;39219;53.678;9.856;2023-10-19T06:13:51;23.95;;;12.00;;
52838;SDS011;39219;53.678;9.856;2023-10-19T06:16:17;21.23;;;11.48;;
52838;SDS011;39219;53.678;9.856;2023-10-19T06:18:43;22.55;;;11.25;;
52838;SDS011;39219;53.678;9.856;2023-10-19T06:21:10;23.20;;;12.30;;
52838;SDS011;39219;53.678;9.856;2023-10-19T06:23:37;24.35;;;12.38;;
52838;SDS011;39219;53.678;9.856;2023-10-19T06:26:08;22.27;;;11.88;;
52838;SDS011;39219;53.678;9.856;2023-10-19T06:28:35;23.75;;;12.07;;
52838;SDS011;39219;53.678;9.856;2023-10-19T06:31:06;21.70;;;11.40;;
52838;SDS011;39219;53.678;9.856;2023-10-19T06:33:33;22.83;;;11.38;;
52838;SDS011;39219;53.678;9.856;2023-10-19T06:36:00;24.23;;;11.35;;
52838;SDS011;39219;53.678;9.856;2023-10-19T06:38:28;25.08;;;11.65;;
52838;SDS011;39219;53.678;9.856;2023-10-19T06:40:54;22.80;;;12.15;;
52838;SDS011;39219;53.678;9.856;2023-10-19T06:43:21;22.92;;;11.48;;
52838;SDS011;39219;53.678;9.856;2023-10-19T06:45:50;22.63;;;12.32;;
52838;SDS011;39219;53.678;9.856;2023-10-19T06:48:19;22.83;;;11.75;;
52838;SDS011;39219;53.678;9.856;2023-10-19T06:50:45;22.90;;;11.77;;
52838;SDS011;39219;53.678;9.856;2023-10-19T06:53:12;22.23;;;12.05;;
52838;SDS011;39219;53.678;9.856;2023-10-19T06:55:38;19.90;;;11.70;;
52838;SDS011;39219;53.678;9.856;2023-10-19T06:58:05;20.95;;;10.82;;
52838;SDS011;39219;53.678;9.856;2023-10-19T07:00:34;22.45;;;12.07;;
52838;SDS011;39219;53.678;9.856;2023-10-19T07:03:07;23.20;;;11.68;;
52838;SDS011;39219;53.678;9.856;2023-10-19T07:05:35;20.88;;;11.95;;
52838;SDS011;39219;53.678;9.856;2023-10-19T07:08:01;24.45;;;12.25;;
52838;SDS011;39219;53.678;9.856;2023-10-19T07:10:28;24.00;;;12.57;;
52838;SDS011;39219;53.678;9.856;2023-10-19T07:12:54;21.42;;;11.38;;
52838;SDS011;39219;53.678;9.856;2023-10-19T07:15:22;22.92;;;12.30;;
52838;SDS011;39219;53.678;9.856;2023-10-19T07:17:50;21.90;;;12.38;;
52838;SDS011;39219;53.678;9.856;2023-10-19T07:20:19;25.10;;;12.07;;
52838;SDS011;39219;53.678;9.856;2023-10-19T07:22:51;23.98;;;11.88;;
52838;SDS011;39219;53.678;9.856;2023-10-19T07:25:18;23.27;;;12.43;;
52838;SDS011;39219;53.678;9.856;2023-10-19T07:27:46;26.48;;;12.40;;
52838;SDS011;39219;53.678;9.856;2023-10-19T07:30:12;24.08;;;12.77;;
52838;SDS011;39219;53.678;9.856;2023-10-19T07:32:40;22.50;;;12.65;;
52838;SDS011;39219;53.678;9.856;2023-10-19T07:35:06;22.02;;;12.00;;
52838;SDS011;39219;53.678;9.856;2023-10-19T07:37:33;24.00;;;12.07;;
52838;SDS011;39219;53.678;9.856;2023-10-19T07:40:01;23.33;;;12.10;;
52838;SDS011;39219;53.678;9.856;2023-10-19T07:42:30;22.60;;;12.00;;
52838;SDS011;39219;53.678;9.856;2023-10-19T07:44:58;23.13;;;12.18;;
52838;SDS011;39219;53.678;9.856;2023-10-19T07:47:24;24.23;;;13.18;;
52838;SDS011;39219;53.678;9.856;2023-10-19T07:49:50;25.92;;;11.95;;
52838;SDS011;39219;53.678;9.856;2023-10-19T07:52:19;23.63;;;12.52;;
52838;SDS011;39219;53.678;9.856;2023-10-19T07:54:46;26.83;;;12.85;;
52838;SDS011;39219;53.678;9.856;2023-10-19T07:57:14;21.52;;;11.98;;
52838;SDS011;39219;53.678;9.856;2023-10-19T07:59:40;23.27;;;12.32;;
52838;SDS011;39219;53.678;9.856;2023-10-19T08:02:07;23.73;;;13.00;;
52838;SDS011;39219;53.678;9.856;2023-10-19T08:04:34;24.55;;;12.32;;
52838;SDS011;39219;53.678;9.856;2023-10-19T08:07:00;24.73;;;12.90;;
52838;SDS011;39219;53.678;9.856;2023-10-19T08:09:26;21.42;;;12.13;;
52838;SDS011;39219;53.678;9.856;2023-10-19T08:11:56;21.42;;;11.98;;
52838;SDS011;39219;53.678;9.856;2023-10-19T08:14:25;23.08;;;11.88;;
52838;SDS011;39219;53.678;9.856;2023-10-19T08:16:52;22.05;;;11.77;;
52838;SDS011;39219;53.678;9.856;2023-10-19T08:19:19;22.13;;;12.25;;
52838;SDS011;39219;53.678;9.856;2023-10-19T08:21:45;24.38;;;12.65;;
52838;SDS011;39219;53.678;9.856;2023-10-19T08:24:12;25.83;;;12.57;;
52838;SDS011;39219;53.678;9.856;2023-10-19T08:26:43;26.27;;;12.23;;
52838;SDS011;39219;53.678;9.856;2023-10-19T08:29:10;24.77;;;12.80;;
52838;SDS011;39219;53.678;9.856;2023-10-19T08:31:40;25.30;;;12.63;;
52838;SDS011;39219;53.678;9.856;2023-10-19T08:34:06;23.98;;;12.35;;
52838;SDS011;39219;53.678;9.856;2023-10-19T08:36:34;27.23;;;13.43;;
52838;SDS011;39219;53.678;9.856;2023-10-19T08:39:00;26.60;;;13.02;;
52838;SDS011;39219;53.678;9.856;2023-10-19T08:41:30;23.50;;;12.52;;
52838;SDS011;39219;53.678;9.856;2023-10-19T08:43:57;24.25;;;12.88;;
52838;SDS011;39219;53.678;9.856;2023-10-19T08:46:24;24.30;;;13.05;;
52838;SDS011;39219;53.678;9.856;2023-10-19T08:48:54;26.80;;;13.52;;
52838;SDS011;39219;53.678;9.856;2023-10-19T08:51:22;25.38;;;13.02;;
52838;SDS011;39219;53.678;9.856;2023-10-19T08:53:50;24.67;;;12.90;;
52838;SDS011;39219;53.678;9.856;2023-10-19T08:56:17;28.00;;;13.75;;
52838;SDS011;39219;53.678;9.856;2023-10-19T08:58:43;27.13;;;13.50;;
52838;SDS011;39219;53.678;9.856;2023-10-19T09:01:11;25.73;;;13.95;;
52838;SDS011;39219;53.678;9.856;2023-10-19T09:03:38;28.08;;;13.88;;
52838;SDS011;39219;53.678;9.856;2023-10-19T09:06:07;25.92;;;13.77;;
52838;SDS011;39219;53.678;9.856;2023-10-19T09:08:33;31.02;;;14.52;;
52838;SDS011;39219;53.678;9.856;2023-10-19T09:11:06;27.38;;;14.10;;
52838;SDS011;39219;53.678;9.856;2023-10-19T09:13:37;27.23;;;14.52;;
52838;SDS011;39219;53.678;9.856;2023-10-19T09:16:08;29.60;;;14.98;;
52838;SDS011;39219;53.678;9.856;2023-10-19T09:18:35;27.55;;;14.85;;
52838;SDS011;39219;53.678;9.856;2023-10-19T09:21:01;28.60;;;15.57;;
52838;SDS011;39219;53.678;9.856;2023-10-19T09:23:34;28.50;;;14.27;;
52838;SDS011;39219;53.678;9.856;2023-10-19T09:26:01;28.23;;;14.68;;
52838;SDS011;39219;53.678;9.856;2023-10-19T09:28:28;27.75;;;14.80;;
52838;SDS011;39219;53.678;9.856;2023-10-19T09:30:58;29.08;;;14.52;;
52838;SDS011;39219;53.678;9.856;2023-10-19T09:33:25;28.40;;;14.95;;
52838;SDS011;39219;53.678;9.856;2023-10-19T09:35:54;30.50;;;15.23;;
52838;SDS011;39219;53.678;9.856;2023-10-19T09:38:21;29.95;;;15.38;;
52838;SDS011;39219;53.678;9.856;2023-10-19T09:40:49;29.55;;;15.40;;
52838;SDS011;39219;53.678;9.856;2023-10-19T09:43:16;32.03;;;15.90;;
52838;SDS011;39219;53.678;9.856;2023-10-19T09:45:45;31.50;;;15.48;;
52838;SDS011;39219;53.678;9.856;2023-10-19T09:48:15;28.05;;;15.50;;
52838;SDS011;39219;53.678;9.856;2023-10-19T09:50:43;29.45;;;15.02;;
52838;SDS011;39219;53.678;9.856;2023-10-19T09:53:10;28.67;;;15.23;;
52838;SDS011;39219;53.678;9.856;2023-10-19T09:55:37;30.80;;;15.75;;
52838;SDS011;39219;53.678;9.856;2023-10-19T09:58:06;31.42;;;15.90;;
52838;SDS011;39219;53.678;9.856;2023-10-19T10:00:34;28.30;;;15.10;;
52838;SDS011;39219;53.678;9.856;2023-10-19T10:03:00;27.33;;;14.90;;
52838;SDS011;39219;53.678;9.856;2023-10-19T10:08:29;27.65;;;15.07;;
52838;SDS011;39219;53.678;9.856;2023-10-19T10:10:55;25.75;;;14.63;;
52838;SDS011;39219;53.678;9.856;2023-10-19T10:13:36;24.85;;;14.70;;
52838;SDS011;39219;53.678;9.856;2023-10-19T10:16:03;27.20;;;14.25;;
52838;SDS011;39219;53.678;9.856;2023-10-19T10:18:31;26.42;;;14.32;;
52838;SDS011;39219;53.678;9.856;2023-10-19T10:21:04;26.38;;;14.07;;
52838;SDS011;39219;53.678;9.856;2023-10-19T10:23:31;29.13;;;15.20;;
52838;SDS011;39219;53.678;9.856;2023-10-19T10:25:58;27.88;;;14.05;;
52838;SDS011;39219;53.678;9.856;2023-10-19T10:28:24;27.15;;;14.27;;
52838;SDS011;39219;53.678;9.856;2023-10-19T10:31:13;28.23;;;14.13;;
52838;SDS011;39219;53.678;9.856;2023-10-19T10:33:40;23.98;;;14.18;;
52838;SDS011;39219;53.678;9.856;2023-10-19T10:36:06;26.60;;;13.60;;
52838;SDS011;39219;53.678;9.856;2023-10-19T10:38:33;28.13;;;13.90;;
52838;SDS011;39219;53.678;9.856;2023-10-19T10:41:00;25.27;;;13.80;;
52838;SDS011;39219;53.678;9.856;2023-10-19T10:43:26;23.10;;;13.32;;
52838;SDS011;39219;53.678;9.856;2023-10-19T10:45:54;23.23;;;13.48;;
52838;SDS011;39219;53.678;9.856;2023-10-19T10:50:55;24.42;;;13.68;;
52838;SDS011;39219;53.678;9.856;2023-10-19T10:53:22;24.50;;;13.25;;
52838;SDS011;39219;53.678;9.856;2023-10-19T10:55:49;24.30;;;13.25;;
52838;SDS011;39219;53.678;9.856;2023-10-19T10:58:16;25.15;;;13.90;;
52838;SDS011;39219;53.678;9.856;2023-10-19T11:00:43;22.85;;;12.68;;
52838;SDS011;39219;53.678;9.856;2023-10-19T11:03:10;24.15;;;13.60;;
52838;SDS011;39219;53.678;9.856;2023-10-19T11:05:36;23.35;;;13.30;;
52838;SDS011;39219;53.678;9.856;2023-10-19T11:08:05;23.95;;;13.18;;
52838;SDS011;39219;53.678;9.856;2023-10-19T11:10:31;24.23;;;13.68;;
52838;SDS011;39219;53.678;9.856;2023-10-19T11:12:59;23.77;;;13.98;;
52838;SDS011;39219;53.678;9.856;2023-10-19T11:15:26;25.23;;;14.27;;
52838;SDS011;39219;53.678;9.856;2023-10-19T11:17:52;26.35;;;14.23;;
52838;SDS011;39219;53.678;9.856;2023-10-19T11:20:21;23.40;;;14.02;;
52838;SDS011;39219;53.678;9.856;2023-10-19T11:22:48;24.55;;;14.00;;
52838;SDS011;39219;53.678;9.856;2023-10-19T11:25:20;25.35;;;14.10;;
52838;SDS011;39219;53.678;9.856;2023-10-19T11:27:46;26.23;;;14.48;;
52838;SDS011;39219;53.678;9.856;2023-10-19T11:30:13;26.67;;;14.98;;
52838;SDS011;39219;53.678;9.856;2023-10-19T11:32:40;26.95;;;14.85;;
52838;SDS011;39219;53.678;9.856;2023-10-19T11:35:07;26.23;;;14.38;;
52838;SDS011;39219;53.678;9.856;2023-10-19T11:37:45;27.67;;;15.38;;
52838;SDS011;39219;53.678;9.856;2023-10-19T11:40:11;29.85;;;15.63;;
52838;SDS011;39219;53.678;9.856;2023-10-19T11:42:39;27.27;;;14.35;;
52838;SDS011;39219;53.678;9.856;2023-10-19T11:45:05;23.55;;;14.07;;
52838;SDS011;39219;53.678;9.856;2023-10-19T11:47:32;26.60;;;15.23;;
52838;SDS011;39219;53.678;9.856;2023-10-19T11:49:58;25.00;;;14.18;;
52838;SDS011;39219;53.678;9.856;2023-10-19T11:52:24;24.25;;;13.95;;
52838;SDS011;39219;53.678;9.856;2023-10-19T11:54:52;24.15;;;13.60;;
52838;SDS011;39219;53.678;9.856;2023-10-19T11:57:19;27.20;;;14.25;;
52838;SDS011;39219;53.678;9.856;2023-10-19T11:59:46;25.70;;;13.98;;
52838;SDS011;39219;53.678;9.856;2023-10-19T12:02:17;25.10;;;13.85;;
52838;SDS011;39219;53.678;9.856;2023-10-19T12:04:43;25.65;;;13.77;;
52838;SDS011;39219;53.678;9.856;2023-10-19T12:07:10;23.67;;;13.63;;
52838;SDS011;39219;53.678;9.856;2023-10-19T12:09:36;25.25;;;14.40;;
52838;SDS011;39219;53.678;9.856;2023-10-19T12:12:03;26.08;;;13.88;;
52838;SDS011;39219;53.678;9.856;2023-10-19T12:14:31;25.17;;;13.85;;
52838;SDS011;39219;53.678;9.856;2023-10-19T12:17:00;24.85;;;13.32;;
52838;SDS011;39219;53.678;9.856;2023-10-19T12:19:27;25.63;;;13.27;;
52838;SDS011;39219;53.678;9.856;2023-10-19T12:21:54;22.98;;;12.98;;
52838;SDS011;39219;53.678;9.856;2023-10-19T12:24:21;26.67;;;13.95;;
52838;SDS011;39219;53.678;9.856;2023-10-19T12:26:48;22.92;;;13.30;;
52838;SDS011;39219;53.678;9.856;2023-10-19T12:29:15;23.55;;;13.50;;
52838;SDS011;39219;53.678;9.856;2023-10-19T12:31:42;22.35;;;13.13;;
52838;SDS011;39219;53.678;9.856;2023-10-19T12:34:10;24.63;;;13.05;;
52838;SDS011;39219;53.678;9.856;2023-10-19T12:36:37;23.20;;;13.15;;
52838;SDS011;39219;53.678;9.856;2023-10-19T12:39:04;23.23;;;12.60;;
52838;SDS011;39219;53.678;9.856;2023-10-19T12:41:31;25.35;;;13.68;;
52838;SDS011;39219;53.678;9.856;2023-10-19T12:43:58;21.65;;;12.13;;
52838;SDS011;39219;53.678;9.856;2023-10-19T12:46:27;23.90;;;12.60;;
52838;SDS011;39219;53.678;9.856;2023-10-19T12:48:54;23.58;;;12.73;;
52838;SDS011;39219;53.678;9.856;2023-10-19T12:51:24;24.85;;;13.55;;
52838;SDS011;39219;53.678;9.856;2023-10-19T12:53:50;24.02;;;13.40;;
52838;SDS011;39219;53.678;9.856;2023-10-19T12:56:17;24.33;;;13.07;;
52838;SDS011;39219;53.678;9.856;2023-10-19T12:58:44;23.67;;;12.98;;
52838;SDS011;39219;53.678;9.856;2023-10-19T13:01:10;23.40;;;13.45;;
52838;SDS011;39219;53.678;9.856;2023-10-19T13:03:41;22.23;;;12.55;;
52838;SDS011;39219;53.678;9.856;2023-10-19T13:06:10;24.50;;;13.07;;
52838;SDS011;39219;53.678;9.856;2023-10-19T13:08:38;21.67;;;12.57;;
52838;SDS011;39219;53.678;9.856;2023-10-19T13:11:05;20.88;;;12.52;;
52838;SDS011;39219;53.678;9.856;2023-10-19T13:13:32;25.10;;;13.55;;
52838;SDS011;39219;53.678;9.856;2023-10-19T13:16:01;26.63;;;13.50;;
52838;SDS011;39219;53.678;9.856;2023-10-19T13:18:30;23.35;;;12.95;;
52838;SDS011;39219;53.678;9.856;2023-10-19T13:20:59;24.83;;;13.50;;
52838;SDS011;39219;53.678;9.856;2023-10-19T13:23:28;24.55;;;13.35;;
52838;SDS011;39219;53.678;9.856;2023-10-19T13:25:56;22.65;;;13.05;;
52838;SDS011;39219;53.678;9.856;2023-10-19T13:28:33;23.92;;;13.18;;
52838;SDS011;39219;53.678;9.856;2023-10-19T13:31:00;23.38;;;12.82;;
52838;SDS011;39219;53.678;9.856;2023-10-19T13:33:26;24.30;;;13.40;;
52838;SDS011;39219;53.678;9.856;2023-10-19T13:35:53;25.63;;;13.98;;
52838;SDS011;39219;53.678;9.856;2023-10-19T13:38:19;23.63;;;13.48;;
52838;SDS011;39219;53.678;9.856;2023-10-19T13:40:46;24.48;;;12.80;;
52838;SDS011;39219;53.678;9.856;2023-10-19T13:43:15;23.42;;;13.13;;
52838;SDS011;39219;53.678;9.856;2023-10-19T13:45:43;25.40;;;13.85;;
52838;SDS011;39219;53.678;9.856;2023-10-19T13:48:10;23.48;;;13.23;;
52838;SDS011;39219;53.678;9.856;2023-10-19T13:50:40;22.92;;;12.75;;
52838;SDS011;39219;53.678;9.856;2023-10-19T13:53:07;20.65;;;12.40;;
52838;SDS011;39219;53.678;9.856;2023-10-19T13:55:34;24.23;;;13.43;;
52838;SDS011;39219;53.678;9.856;2023-10-19T13:58:01;23.90;;;13.45;;
52838;SDS011;39219;53.678;9.856;2023-10-19T14:00:29;22.85;;;13.00;;
52838;SDS011;39219;53.678;9.856;2023-10-19T14:03:00;25.88;;;14.25;;
52838;SDS011;39219;53.678;9.856;2023-10-19T14:05:29;23.30;;;13.02;;
52838;SDS011;39219;53.678;9.856;2023-10-19T14:07:56;23.58;;;12.75;;
52838;SDS011;39219;53.678;9.856;2023-10-19T14:10:22;23.33;;;12.68;;
52838;SDS011;39219;53.678;9.856;2023-10-19T14:12:49;21.70;;;12.95;;
52838;SDS011;39219;53.678;9.856;2023-10-19T14:15:16;23.08;;;12.77;;
52838;SDS011;39219;53.678;9.856;2023-10-19T14:17:45;22.80;;;13.15;;
52838;SDS011;39219;53.678;9.856;2023-10-19T14:20:11;23.08;;;12.48;;
52838;SDS011;39219;53.678;9.856;2023-10-19T14:22:41;22.95;;;12.93;;
52838;SDS011;39219;53.678;9.856;2023-10-19T14:25:08;23.42;;;12.85;;
52838;SDS011;39219;53.678;9.856;2023-10-19T14:27:37;23.98;;;12.82;;
52838;SDS011;39219;53.678;9.856;2023-10-19T14:30:04;24.95;;;12.40;;
52838;SDS011;39219;53.678;9.856;2023-10-19T14:32:31;23.65;;;12.57;;
52838;SDS011;39219;53.678;9.856;2023-10-19T14:34:59;21.83;;;12.20;;